Time;durP1;ratioP1;P1;durP2;ratioP2;P2;SDS_P1;SDS_P2;PMS_P1;PMS_P2;Temp;Humidity;BMP_temperature;BMP_pressure;BME280_temperature;BME280_humidity;BME280_pressure;Samples;Min_cycle;Max_cycle;Signal;HPM_P1;HPM_P2
2023/10/20 00:01:56;;;;;;;;;;;8.60;99.90;;;;;;7311040;19;11079;-85
2023/10/20 00:04:25;;;;;;;;;;;8.60;99.90;;;;;;7315826;19;10233;-85
2023/10/20 00:06:58;;;;;;;;;;;8.60;99.90;;;;;;7315638;19;9256;-85
2023/10/20 00:09:29;;;;;;;;;;;8.60;99.90;;;;;;7313947;19;9304;-86
2023/10/20 00:11:58;;;;;;;;;;;8.70;99.90;;;;;;7310427;19;10759;-86
2023/10/20 00:14:27;;;;;;;;;;;8.60;99.90;;;;;;7318186;19;9384;-86
2023/10/20 00:16:57;;;;;;;;;;;8.50;99.90;;;;;;7324126;19;9351;-86
2023/10/20 00:19:26;;;;;;;;;;;8.60;99.90;;;;;;7322096;19;9602;-87
2023/10/20 00:21:58;;;;;;;;;;;8.70;99.90;;;;;;7321153;19;9291;-86
2023/10/20 00:24:27;;;;;;;;;;;8.70;99.90;;;;;;7320822;19;9242;-86
2023/10/20 00:26:56;;;;;;;;;;;8.70;99.90;;;;;;7315385;19;9241;-83
2023/10/20 00:29:25;;;;;;;;;;;8.60;99.90;;;;;;7321143;19;9252;-83
2023/10/20 00:31:54;;;;;;;;;;;8.60;99.90;;;;;;7323330;19;10233;-84
2023/10/20 00:34:23;;;;;;;;;;;8.50;99.90;;;;;;7322068;19;10642;-84
2023/10/20 00:36:52;;;;;;;;;;;8.60;99.90;;;;;;7321019;19;9469;-83
2023/10/20 00:39:23;;;;;;;;;;;8.50;99.90;;;;;;7321812;19;9267;-83
2023/10/20 00:41:52;;;;;;;;;;;8.60;99.90;;;;;;7323832;19;10745;-84
2023/10/20 00:44:21;;;;;;;;;;;8.70;99.90;;;;;;7319823;19;9625;-83
2023/10/20 00:46:50;;;;;;;;;;;8.80;99.90;;;;;;7319698;19;9521;-83
2023/10/20 00:49:20;;;;;;;;;;;8.80;99.90;;;;;;7320457;19;9541;-82
2023/10/20 00:51:49;;;;;;;;;;;8.70;99.90;;;;;;7322755;19;11470;-83
2023/10/20 00:54:20;;;;;;;;;;;8.70;99.90;;;;;;7318804;19;9470;-83
2023/10/20 00:56:52;;;;;;;;;;;8.60;99.90;;;;;;7321312;19;9249;-83
2023/10/20 00:59:21;;;;;;;;;;;8.70;99.90;;;;;;7321562;19;9407;-83
2023/10/20 01:01:50;;;;;;;;;;;8.70;99.90;;;;;;7320774;19;9269;-83
2023/10/20 01:04:19;;;;;;;;;;;8.80;99.90;;;;;;7314097;19;9451;-83
2023/10/20 01:06:50;;;;;;;;;;;8.90;99.90;;;;;;7321551;19;9245;-85
2023/10/20 01:09:26;;;;;;;;;;;8.70;99.90;;;;;;7317555;19;9476;-84
2023/10/20 01:11:58;;;;;;;;;;;8.80;99.90;;;;;;7320525;19;9165;-84
2023/10/20 01:14:27;;;;;;;;;;;8.70;99.90;;;;;;7319573;19;9187;-84
2023/10/20 01:16:56;;;;;;;;;;;8.80;99.90;;;;;;7316425;19;9329;-83
2023/10/20 01:19:25;;;;;;;;;;;8.80;99.90;;;;;;7315736;19;9301;-83
2023/10/20 01:21:54;;;;;;;;;;;8.80;99.90;;;;;;7318960;19;9354;-83
2023/10/20 01:24:26;;;;;;;;;;;8.90;99.90;;;;;;7319086;19;9556;-83
2023/10/20 01:26:55;;;;;;;;;;;8.90;99.90;;;;;;7315574;19;9277;-82
2023/10/20 01:29:24;;;;;;;;;;;8.70;99.90;;;;;;7312928;19;9221;-83
2023/10/20 01:31:53;;;;;;;;;;;8.70;99.90;;;;;;7319022;19;9515;-83
2023/10/20 01:34:22;;;;;;;;;;;8.80;99.90;;;;;;7319839;19;9255;-84
2023/10/20 01:36:51;;;;;;;;;;;8.70;99.90;;;;;;7321426;19;9031;-86
2023/10/20 01:39:20;;;;;;;;;;;8.80;99.90;;;;;;7313492;19;9394;-82
2023/10/20 01:41:51;;;;;;;;;;;8.70;99.90;;;;;;7319176;19;9330;-83
2023/10/20 01:44:20;;;;;;;;;;;8.70;99.90;;;;;;7316272;19;9266;-83
2023/10/20 01:46:51;;;;;;;;;;;8.80;99.90;;;;;;7320677;19;9287;-83
2023/10/20 01:49:21;;;;;;;;;;;8.70;99.90;;;;;;7319532;19;9214;-83
2023/10/20 01:51:50;;;;;;;;;;;8.60;99.90;;;;;;7321028;19;9121;-83
2023/10/20 01:54:19;;;;;;;;;;;8.80;99.90;;;;;;7318480;19;11204;-83
2023/10/20 01:56:51;;;;;;;;;;;8.70;99.90;;;;;;7316311;19;9321;-82
2023/10/20 01:59:19;;;;;;;;;;;8.80;99.90;;;;;;7322700;19;9439;-83
2023/10/20 02:01:48;;;;;;;;;;;8.90;99.90;;;;;;7320072;19;9395;-83
2023/10/20 02:04:17;;;;;;;;;;;8.90;99.90;;;;;;7319715;19;11809;-82
2023/10/20 02:06:47;;;;;;;;;;;9.00;99.90;;;;;;7318625;19;9613;-82
2023/10/20 02:09:16;;;;;;;;;;;8.90;99.90;;;;;;7315547;19;9122;-82
2023/10/20 02:11:44;;;;;;;;;;;8.90;99.90;;;;;;7315562;19;9567;-83
2023/10/20 02:14:16;;;;;;;;;;;8.90;99.90;;;;;;7317452;19;9531;-82
2023/10/20 02:16:45;;;;;;;;;;;9.00;99.90;;;;;;7318750;19;9368;-83
2023/10/20 02:19:15;;;;;;;;;;;8.90;99.90;;;;;;7318912;19;9186;-82
2023/10/20 02:21:44;;;;;;;;;;;9.00;99.90;;;;;;7319256;19;9321;-82
2023/10/20 02:24:14;;;;;;;;;;;8.90;99.90;;;;;;7316619;19;9075;-83
2023/10/20 02:26:45;;;;;;;;;;;9.10;99.90;;;;;;7316737;19;9297;-82
2023/10/20 02:29:17;;;;;;;;;;;8.90;99.90;;;;;;7316179;19;9346;-83
2023/10/20 02:31:46;;;;;;;;;;;8.80;99.90;;;;;;7316179;19;9306;-82
2023/10/20 02:34:15;;;;;;;;;;;8.90;99.90;;;;;;7317235;19;9303;-82
2023/10/20 02:36:44;;;;;;;;;;;9.00;99.90;;;;;;7316958;19;11718;-82
2023/10/20 02:39:13;;;;;;;;;;;9.00;99.90;;;;;;7317657;19;9245;-82
2023/10/20 02:41:42;;;;;;;;;;;8.80;99.90;;;;;;7318574;19;9260;-82
2023/10/20 02:44:13;;;;;;;;;;;9.00;99.90;;;;;;7316974;19;9375;-81
2023/10/20 02:46:44;;;;;;;;;;;9.10;99.90;;;;;;7315397;19;9284;-82
2023/10/20 02:49:13;;;;;;;;;;;9.10;99.90;;;;;;7316480;19;9250;-82
2023/10/20 02:51:42;;;;;;;;;;;9.20;99.90;;;;;;7314836;19;9268;-83
2023/10/20 02:54:12;;;;;;;;;;;9.10;99.90;;;;;;7310981;19;9634;-82
2023/10/20 02:56:41;;;;;;;;;;;9.10;99.90;;;;;;7315645;19;9136;-82
2023/10/20 02:59:11;;;;;;;;;;;9.00;99.90;;;;;;7320185;19;9318;-82
2023/10/20 03:01:43;;;;;;;;;;;9.00;99.90;;;;;;7315295;19;9214;-82
2023/10/20 03:04:12;;;;;;;;;;;8.90;99.90;;;;;;7317752;19;9424;-82
2023/10/20 03:06:41;;;;;;;;;;;8.90;99.90;;;;;;7314364;19;9527;-83
2023/10/20 03:09:13;;;;;;;;;;;8.80;99.90;;;;;;7313284;19;9485;-84
2023/10/20 03:11:43;;;;;;;;;;;8.70;99.90;;;;;;7311926;19;10961;-83
2023/10/20 03:14:12;;;;;;;;;;;8.70;99.90;;;;;;7313394;19;10118;-82
2023/10/20 03:16:45;;;;;;;;;;;8.60;99.90;;;;;;7317495;19;9214;-82
2023/10/20 03:19:14;;;;;;;;;;;8.70;99.90;;;;;;7313920;19;9257;-82
2023/10/20 03:21:43;;;;;;;;;;;8.80;99.90;;;;;;7312134;19;9289;-82
2023/10/20 03:24:12;;;;;;;;;;;8.70;99.90;;;;;;7317903;19;9533;-82
2023/10/20 03:26:42;;;;;;;;;;;8.80;99.90;;;;;;7312961;19;11284;-83
2023/10/20 03:29:11;;;;;;;;;;;9.00;99.90;;;;;;7311712;19;9313;-82
2023/10/20 03:31:40;;;;;;;;;;;9.10;99.90;;;;;;7312352;19;9438;-83
2023/10/20 03:34:11;;;;;;;;;;;9.00;99.90;;;;;;7309717;19;9494;-82
2023/10/20 03:36:40;;;;;;;;;;;9.10;99.90;;;;;;7317222;19;9400;-82
2023/10/20 03:39:19;;;;;;;;;;;9.00;99.90;;;;;;7313766;19;9076;-82
2023/10/20 03:41:49;;;;;;;;;;;8.80;99.90;;;;;;7317091;19;9350;-83
2023/10/20 03:44:21;;;;;;;;;;;8.80;99.90;;;;;;7314772;19;9264;-82
2023/10/20 03:46:56;;;;;;;;;;;8.70;99.90;;;;;;7318617;19;9418;-83
2023/10/20 03:49:31;;;;;;;;;;;8.70;99.90;;;;;;7315903;19;9425;-82
2023/10/20 03:52:00;;;;;;;;;;;8.70;99.90;;;;;;7314819;19;9490;-82
2023/10/20 03:54:32;;;;;;;;;;;8.80;99.90;;;;;;7311918;19;9133;-83
2023/10/20 03:57:01;;;;;;;;;;;8.80;99.90;;;;;;7315289;19;9303;-82
2023/10/20 03:59:30;;;;;;;;;;;8.70;99.90;;;;;;7315545;19;9249;-81
2023/10/20 04:01:59;;;;;;;;;;;8.90;99.90;;;;;;7313681;19;9470;-82
2023/10/20 04:04:30;;;;;;;;;;;9.00;99.90;;;;;;7312398;19;9185;-82
2023/10/20 04:06:59;;;;;;;;;;;9.00;99.90;;;;;;7311384;19;9740;-82
2023/10/20 04:09:29;;;;;;;;;;;8.90;99.90;;;;;;7313586;19;9493;-82
2023/10/20 04:11:57;;;;;;;;;;;8.90;99.90;;;;;;7313723;19;9182;-82
2023/10/20 04:14:26;;;;;;;;;;;8.90;99.90;;;;;;7314230;19;11450;-82
2023/10/20 04:16:55;;;;;;;;;;;8.90;99.90;;;;;;7312553;19;9125;-83
2023/10/20 04:19:25;;;;;;;;;;;8.70;99.90;;;;;;7313530;19;9222;-82
2023/10/20 04:21:58;;;;;;;;;;;8.80;99.90;;;;;;7315071;19;9308;-83
2023/10/20 04:24:26;;;;;;;;;;;8.70;99.90;;;;;;7314182;19;9785;-82
2023/10/20 04:26:57;;;;;;;;;;;8.80;99.90;;;;;;7313114;19;9139;-83
2023/10/20 04:29:34;;;;;;;;;;;8.90;99.90;;;;;;7310960;19;9383;-85
2023/10/20 04:51:28;;;;;;;;;;;9.00;99.90;;;;;;7313481;19;10300;-85
2023/10/20 04:54:04;;;;;;;;;;;8.90;99.90;;;;;;7314064;19;9545;-85
2023/10/20 04:56:39;;;;;;;;;;;9.00;99.90;;;;;;7312409;19;9351;-85
2023/10/20 04:59:09;;;;;;;;;;;8.90;99.90;;;;;;7312025;19;9780;-85
2023/10/20 05:01:47;;;;;;;;;;;8.90;99.90;;;;;;7318249;19;9130;-86
2023/10/20 05:04:22;;;;;;;;;;;9.00;99.90;;;;;;7316085;19;9553;-86
2023/10/20 05:06:58;;;;;;;;;;;9.00;99.90;;;;;;7321035;19;9240;-84
2023/10/20 05:09:32;;;;;;;;;;;9.00;99.90;;;;;;7316136;19;12182;-85
2023/10/20 05:12:01;;;;;;;;;;;9.10;99.90;;;;;;7317498;19;9229;-85
2023/10/20 05:14:30;;;;;;;;;;;9.10;99.90;;;;;;7315831;19;10829;-86
2023/10/20 05:16:59;;;;;;;;;;;9.10;99.90;;;;;;7319110;19;9253;-86
2023/10/20 05:19:32;;;;;;;;;;;9.00;99.90;;;;;;7317512;19;9250;-86
2023/10/20 05:22:01;;;;;;;;;;;9.20;99.90;;;;;;7321647;19;9278;-86
2023/10/20 05:24:33;;;;;;;;;;;9.20;99.90;;;;;;7321052;19;9485;-85
2023/10/20 05:27:03;;;;;;;;;;;9.20;99.90;;;;;;7314653;19;9254;-85
2023/10/20 05:29:32;;;;;;;;;;;9.10;99.90;;;;;;7316618;19;9503;-85
2023/10/20 05:32:01;;;;;;;;;;;9.00;99.90;;;;;;7311139;19;9141;-85
2023/10/20 05:34:30;;;;;;;;;;;9.00;99.90;;;;;;7319174;19;9164;-85
2023/10/20 05:37:00;;;;;;;;;;;9.00;99.90;;;;;;7314711;19;9484;-85
2023/10/20 05:39:28;;;;;;;;;;;8.90;99.90;;;;;;7317825;19;10673;-85
2023/10/20 05:42:01;;;;;;;;;;;9.00;99.90;;;;;;7320171;19;9596;-83
2023/10/20 05:44:33;;;;;;;;;;;9.10;99.90;;;;;;7321120;19;9233;-83
2023/10/20 05:47:02;;;;;;;;;;;9.00;99.90;;;;;;7318935;19;9214;-84
2023/10/20 05:49:33;;;;;;;;;;;8.90;99.90;;;;;;7320288;19;9437;-83
2023/10/20 05:52:01;;;;;;;;;;;9.00;99.90;;;;;;7319215;19;9461;-83
2023/10/20 05:54:31;;;;;;;;;;;9.10;99.90;;;;;;7319499;19;9272;-83
2023/10/20 05:57:03;;;;;;;;;;;9.10;99.90;;;;;;7316565;19;9238;-81
2023/10/20 05:59:32;;;;;;;;;;;9.10;99.90;;;;;;7322766;19;9202;-86
2023/10/20 06:02:03;;;;;;;;;;;9.30;99.90;;;;;;7315931;19;9273;-84
2023/10/20 06:04:33;;;;;;;;;;;9.30;99.90;;;;;;7315083;19;9757;-87
2023/10/20 06:07:02;;;;;;;;;;;9.40;99.90;;;;;;7314497;19;9522;-85
2023/10/20 06:09:31;;;;;;;;;;;9.30;99.90;;;;;;7315592;19;10436;-83
2023/10/20 06:12:04;;;;;;;;;;;9.20;99.90;;;;;;7319424;19;9328;-74
2023/10/20 06:14:33;;;;;;;;;;;8.90;99.90;;;;;;7303869;19;9129;-74
2023/10/20 06:17:02;;;;;;;;;;;8.80;99.90;;;;;;7309666;19;10424;-74
2023/10/20 06:19:31;;;;;;;;;;;8.60;99.90;;;;;;7319158;19;9355;-74
2023/10/20 06:22:00;;;;;;;;;;;8.60;99.90;;;;;;7319693;19;9309;-74
2023/10/20 06:24:29;;;;;;;;;;;8.70;99.90;;;;;;7315501;19;9315;-74
2023/10/20 06:27:02;;;;;;;;;;;8.60;99.90;;;;;;7297671;19;9432;-73
2023/10/20 06:29:43;;;;;;;;;;;8.50;99.90;;;;;;7319652;19;9230;-74
2023/10/20 06:32:22;;;;;;;;;;;8.60;99.90;;;;;;7309650;19;9642;-74
2023/10/20 06:34:52;;;;;;;;;;;8.60;99.90;;;;;;7321553;19;9541;-74
2023/10/20 06:37:28;;;;;;;;;;;8.50;99.90;;;;;;7318855;19;9503;-75
2023/10/20 06:39:58;;;;;;;;;;;8.40;99.90;;;;;;7320494;19;9496;-77
2023/10/20 06:42:28;;;;;;;;;;;8.50;99.90;;;;;;7320869;19;9154;-74
2023/10/20 06:45:01;;;;;;;;;;;8.50;99.90;;;;;;7316982;19;9470;-74
2023/10/20 06:47:30;;;;;;;;;;;8.50;99.90;;;;;;7320913;19;9317;-74
2023/10/20 06:49:59;;;;;;;;;;;8.40;99.90;;;;;;7318221;19;9135;-75
2023/10/20 06:52:28;;;;;;;;;;;8.30;99.90;;;;;;7320259;19;9254;-74
2023/10/20 06:54:57;;;;;;;;;;;8.30;99.90;;;;;;7319572;19;10198;-76
2023/10/20 06:57:26;;;;;;;;;;;8.40;99.90;;;;;;7314433;19;9665;-76
2023/10/20 06:59:55;;;;;;;;;;;8.30;99.90;;;;;;7319768;19;9182;-75
2023/10/20 07:02:27;;;;;;;;;;;8.20;99.90;;;;;;7318522;19;9246;-76
2023/10/20 07:04:56;;;;;;;;;;;8.20;99.90;;;;;;7320225;19;9235;-76
2023/10/20 07:07:25;;;;;;;;;;;8.20;99.90;;;;;;7319455;19;9308;-76
2023/10/20 07:09:54;;;;;;;;;;;8.20;99.90;;;;;;7320210;19;9348;-76
2023/10/20 07:12:23;;;;;;;;;;;8.30;99.90;;;;;;7315342;19;9294;-76
2023/10/20 07:14:52;;;;;;;;;;;8.20;99.90;;;;;;7318895;19;9326;-77
2023/10/20 07:17:21;;;;;;;;;;;8.20;99.90;;;;;;7318365;19;10203;-77
2023/10/20 07:19:53;;;;;;;;;;;8.10;99.90;;;;;;7318775;19;9220;-76
2023/10/20 07:22:22;;;;;;;;;;;8.00;99.90;;;;;;7317797;19;9116;-75
2023/10/20 07:24:51;;;;;;;;;;;8.00;99.90;;;;;;7316344;19;10371;-76
2023/10/20 07:27:22;;;;;;;;;;;8.00;99.90;;;;;;7313531;19;9610;-76
2023/10/20 07:29:51;;;;;;;;;;;8.00;99.90;;;;;;7319053;19;9273;-75
2023/10/20 07:32:22;;;;;;;;;;;8.00;99.90;;;;;;7318807;19;9202;-74
2023/10/20 07:34:54;;;;;;;;;;;8.00;99.90;;;;;;7317623;19;9505;-76
2023/10/20 07:37:23;;;;;;;;;;;8.10;99.90;;;;;;7318123;19;9206;-76
2023/10/20 07:39:52;;;;;;;;;;;8.00;99.90;;;;;;7318116;19;9247;-76
2023/10/20 07:42:21;;;;;;;;;;;8.20;99.90;;;;;;7318288;19;9295;-75
2023/10/20 07:44:50;;;;;;;;;;;8.20;99.90;;;;;;7318189;19;9141;-76
2023/10/20 07:47:19;;;;;;;;;;;8.20;99.90;;;;;;7318294;19;9539;-76
2023/10/20 07:49:48;;;;;;;;;;;8.00;99.90;;;;;;7319507;19;10422;-76
2023/10/20 07:52:19;;;;;;;;;;;8.00;99.90;;;;;;7316674;19;9297;-74
2023/10/20 07:54:48;;;;;;;;;;;8.10;99.90;;;;;;7318135;19;9505;-76
2023/10/20 07:57:20;;;;;;;;;;;8.10;99.90;;;;;;7314550;19;9170;-75
2023/10/20 07:59:49;;;;;;;;;;;8.00;99.90;;;;;;7318331;19;9530;-76
2023/10/20 08:02:18;;;;;;;;;;;8.00;99.90;;;;;;7312922;19;9175;-77
2023/10/20 08:04:47;;;;;;;;;;;7.90;99.90;;;;;;7318448;19;9244;-75
2023/10/20 08:07:18;;;;;;;;;;;8.00;99.90;;;;;;7313830;19;9640;-76
2023/10/20 08:09:47;;;;;;;;;;;7.80;99.90;;;;;;7316579;19;9269;-76
2023/10/20 08:12:16;;;;;;;;;;;7.90;99.90;;;;;;7316697;19;10554;-76
2023/10/20 08:14:45;;;;;;;;;;;7.90;99.90;;;;;;7313598;19;9471;-76
2023/10/20 08:17:14;;;;;;;;;;;7.90;99.90;;;;;;7315915;19;9412;-76
2023/10/20 08:19:46;;;;;;;;;;;7.80;99.90;;;;;;7317074;19;9476;-76
2023/10/20 08:22:15;;;;;;;;;;;7.80;99.90;;;;;;7316831;19;9130;-75
2023/10/20 08:24:47;;;;;;;;;;;7.80;99.90;;;;;;7316345;19;9759;-76
2023/10/20 08:27:18;;;;;;;;;;;7.70;99.90;;;;;;7314025;19;9626;-76
2023/10/20 08:29:48;;;;;;;;;;;7.80;99.90;;;;;;7317946;19;9173;-76
2023/10/20 08:32:19;;;;;;;;;;;7.80;99.90;;;;;;7314603;19;9468;-76
2023/10/20 08:34:48;;;;;;;;;;;7.70;99.90;;;;;;7319021;19;9191;-76
2023/10/20 08:37:17;;;;;;;;;;;7.80;99.90;;;;;;7322904;19;9291;-75
2023/10/20 08:39:49;;;;;;;;;;;7.80;99.90;;;;;;7323832;19;9225;-76
2023/10/20 08:42:19;;;;;;;;;;;7.60;99.90;;;;;;7323515;19;10590;-75
2023/10/20 08:44:50;;;;;;;;;;;7.80;99.90;;;;;;7323272;19;9504;-76
2023/10/20 08:47:20;;;;;;;;;;;7.80;99.90;;;;;;7322638;19;9292;-75
2023/10/20 08:49:49;;;;;;;;;;;7.70;99.90;;;;;;7323089;19;9367;-76
2023/10/20 08:52:22;;;;;;;;;;;7.80;99.90;;;;;;7324572;19;9165;-76
2023/10/20 08:54:55;;;;;;;;;;;7.70;99.90;;;;;;7325179;19;9622;-75
2023/10/20 08:57:24;;;;;;;;;;;7.60;99.90;;;;;;7320230;19;9137;-76
2023/10/20 08:59:54;;;;;;;;;;;7.50;99.90;;;;;;7322979;19;9214;-76
2023/10/20 09:02:23;;;;;;;;;;;7.50;99.90;;;;;;7322150;19;9278;-76
2023/10/20 09:04:53;;;;;;;;;;;7.50;99.90;;;;;;7323832;19;10236;-76
2023/10/20 09:07:25;;;;;;;;;;;7.40;99.90;;;;;;7321326;19;9253;-76
2023/10/20 09:09:56;;;;;;;;;;;7.50;99.90;;;;;;7322965;19;9735;-75
2023/10/20 09:12:26;;;;;;;;;;;7.50;99.90;;;;;;7322111;19;9291;-76
2023/10/20 09:14:56;;;;;;;;;;;7.50;99.90;;;;;;7321823;19;9209;-75
2023/10/20 09:17:26;;;;;;;;;;;7.60;99.90;;;;;;7323134;19;9245;-75
2023/10/20 09:20:07;;;;;;;;;;;7.60;99.90;;;;;;7321420;19;9260;-76
2023/10/20 09:22:36;;;;;;;;;;;7.50;99.90;;;;;;7323896;19;9653;-75
2023/10/20 09:25:11;;;;;;;;;;;7.40;99.90;;;;;;7320996;19;9188;-75
2023/10/20 09:27:41;;;;;;;;;;;7.40;99.90;;;;;;7319765;19;9273;-76
2023/10/20 09:30:12;;;;;;;;;;;7.40;99.90;;;;;;7324200;19;9501;-76
2023/10/20 09:32:43;;;;;;;;;;;7.40;99.90;;;;;;7319795;19;9560;-75
2023/10/20 09:35:13;;;;;;;;;;;7.60;99.90;;;;;;7319063;19;9287;-76
2023/10/20 09:37:45;;;;;;;;;;;7.50;99.90;;;;;;7322923;19;9111;-75
2023/10/20 09:40:19;;;;;;;;;;;7.60;99.90;;;;;;7321200;19;10333;-76
2023/10/20 09:43:03;;;;;;;;;;;7.50;99.90;;;;;;7323396;19;9751;-75
2023/10/20 09:45:36;;;;;;;;;;;7.50;99.90;;;;;;7322603;19;9266;-76
2023/10/20 09:48:13;;;;;;;;;;;7.40;99.90;;;;;;7320800;19;9473;-76
2023/10/20 09:50:46;;;;;;;;;;;7.40;99.90;;;;;;7321760;19;11770;-76
2023/10/20 09:53:15;;;;;;;;;;;7.50;99.90;;;;;;7321886;19;9563;-76
2023/10/20 09:55:50;;;;;;;;;;;7.30;99.90;;;;;;7318082;19;9120;-75
2023/10/20 09:58:27;;;;;;;;;;;7.40;99.90;;;;;;7317468;19;9556;-75
2023/10/20 10:00:58;;;;;;;;;;;7.60;99.90;;;;;;7320793;19;9722;-75
2023/10/20 10:03:34;;;;;;;;;;;7.50;99.90;;;;;;7320068;19;9773;-75
2023/10/20 10:06:05;;;;;;;;;;;7.60;99.90;;;;;;7301945;19;9380;-74
2023/10/20 10:08:34;;;;;;;;;;;7.50;99.90;;;;;;7302178;19;11289;-73
2023/10/20 10:11:23;;;;;;;;;;;7.60;99.90;;;;;;7298361;19;9469;-76
2023/10/20 10:13:57;;;;;;;;;;;7.50;99.90;;;;;;7318895;19;9138;-76
2023/10/20 10:16:26;;;;;;;;;;;7.50;99.90;;;;;;7319998;19;9227;-82
2023/10/20 10:18:56;;;;;;;;;;;7.40;99.90;;;;;;7316180;19;9302;-82
2023/10/20 10:21:31;;;;;;;;;;;7.40;99.90;;;;;;7319431;19;9458;-81
2023/10/20 10:24:16;;;;;;;;;;;7.50;99.90;;;;;;7321057;19;9498;-88
2023/10/20 10:27:01;;;;;;;;;;;7.50;99.90;;;;;;7302240;19;11900;-85
2023/10/20 10:29:48;;;;;;;;;;;7.70;99.90;;;;;;7300179;19;9494;-84
2023/10/20 10:32:20;;;;;;;;;;;7.60;99.90;;;;;;7296627;19;9555;-86
2023/10/20 10:34:53;;;;;;;;;;;7.70;99.90;;;;;;7279559;19;9294;-85
2023/10/20 10:37:34;;;;;;;;;;;7.70;99.90;;;;;;7282987;19;11418;-82
2023/10/20 10:40:10;;;;;;;;;;;7.80;99.90;;;;;;7312187;19;9207;-85
2023/10/20 10:42:46;;;;;;;;;;;7.70;99.90;;;;;;7319250;19;9141;-86
2023/10/20 10:45:24;;;;;;;;;;;7.70;99.90;;;;;;7318403;19;10363;-90
2023/10/20 10:47:54;;;;;;;;;;;7.70;99.90;;;;;;7318676;19;9237;-85
2023/10/20 10:50:23;;;;;;;;;;;7.70;99.90;;;;;;7317575;19;10652;-88
2023/10/20 10:52:53;;;;;;;;;;;7.70;99.90;;;;;;7319565;19;9110;-88
2023/10/20 10:55:24;;;;;;;;;;;7.70;99.90;;;;;;7316294;19;9282;-85
2023/10/20 10:57:56;;;;;;;;;;;7.80;99.90;;;;;;7327634;19;9376;-90
2023/10/20 11:00:25;;;;;;;;;;;7.80;99.90;;;;;;7324695;19;9124;-89
2023/10/20 11:02:55;;;;;;;;;;;7.70;99.90;;;;;;7325645;19;9419;-87
2023/10/20 11:05:24;;;;;;;;;;;7.70;99.90;;;;;;7324975;19;9624;-89
2023/10/20 11:08:01;;;;;;;;;;;7.60;99.90;;;;;;7317964;19;9380;-85
2023/10/20 11:10:32;;;;;;;;;;;7.50;99.90;;;;;;7296360;19;10893;-86
2023/10/20 11:13:08;;;;;;;;;;;7.50;99.90;;;;;;7290244;19;9435;-85
2023/10/20 11:15:38;;;;;;;;;;;7.70;99.90;;;;;;7296219;19;9306;-86
2023/10/20 11:18:11;;;;;;;;;;;7.50;99.90;;;;;;7317549;19;9626;-86
2023/10/20 11:20:43;;;;;;;;;;;7.50;99.90;;;;;;7316976;19;9242;-85
2023/10/20 11:23:14;;;;;;;;;;;7.70;99.90;;;;;;7314695;19;9254;-85
2023/10/20 11:25:45;;;;;;;;;;;7.50;99.90;;;;;;7305712;19;9261;-85
2023/10/20 11:28:16;;;;;;;;;;;7.60;99.90;;;;;;7301051;19;9473;-84
2023/10/20 11:30:46;;;;;;;;;;;7.40;99.90;;;;;;7288019;19;9575;-85
2023/10/20 11:33:16;;;;;;;;;;;7.30;99.90;;;;;;7318742;19;10270;-85
2023/10/20 11:35:45;;;;;;;;;;;7.50;99.90;;;;;;7306979;19;10889;-82
2023/10/20 11:38:17;;;;;;;;;;;7.40;99.90;;;;;;7316385;19;9292;-84
2023/10/20 11:40:49;;;;;;;;;;;7.30;99.90;;;;;;7316496;19;9258;-85
2023/10/20 11:43:21;;;;;;;;;;;7.30;99.90;;;;;;7289152;19;9206;-85
2023/10/20 11:45:49;;;;;;;;;;;7.50;99.90;;;;;;7293672;19;9307;-85
2023/10/20 11:48:18;;;;;;;;;;;7.40;99.90;;;;;;7286799;19;12752;-84
2023/10/20 11:50:47;;;;;;;;;;;7.40;99.90;;;;;;7291446;19;9180;-83
2023/10/20 11:53:16;;;;;;;;;;;7.40;99.90;;;;;;7312279;19;9227;-83
2023/10/20 11:55:45;;;;;;;;;;;7.50;99.90;;;;;;7288293;19;9421;-83
2023/10/20 11:58:16;;;;;;;;;;;7.60;99.90;;;;;;7288868;19;13086;-84
2023/10/20 12:00:48;;;;;;;;;;;7.50;99.90;;;;;;7308897;19;9210;-83
2023/10/20 12:03:17;;;;;;;;;;;7.70;99.90;;;;;;7316290;19;9258;-84
2023/10/20 12:05:47;;;;;;;;;;;7.70;99.90;;;;;;7303065;19;9483;-84
2023/10/20 12:08:16;;;;;;;;;;;7.60;99.90;;;;;;7309061;19;9340;-83
2023/10/20 12:10:45;;;;;;;;;;;7.60;99.90;;;;;;7307978;19;9303;-86
2023/10/20 12:13:14;;;;;;;;;;;7.60;99.90;;;;;;7318316;19;9125;-83
2023/10/20 12:15:43;;;;;;;;;;;7.70;99.90;;;;;;7329216;19;9491;-89
2023/10/20 12:18:15;;;;;;;;;;;7.60;99.90;;;;;;7328646;19;10648;-85
2023/10/20 12:20:44;;;;;;;;;;;7.60;99.90;;;;;;7330822;19;9417;-83
2023/10/20 12:23:13;;;;;;;;;;;7.50;99.90;;;;;;7326209;19;9935;-83
2023/10/20 12:25:44;;;;;;;;;;;7.40;99.90;;;;;;7301597;19;9277;-82
2023/10/20 12:28:13;;;;;;;;;;;7.50;99.90;;;;;;7329580;19;9845;-83
2023/10/20 12:30:42;;;;;;;;;;;7.40;99.90;;;;;;7317248;19;9339;-85
2023/10/20 12:33:13;;;;;;;;;;;7.60;99.90;;;;;;7318620;19;9753;-85
2023/10/20 12:35:43;;;;;;;;;;;7.60;99.90;;;;;;7323191;19;9530;-84
2023/10/20 12:38:16;;;;;;;;;;;7.60;99.90;;;;;;7314023;19;10567;-89
